createdAt,value
2022-08-11T00:01:26.895Z,3.92
2022-08-11T00:04:03.759Z,4.10
2022-08-11T00:06:30.951Z,4.40
2022-08-11T00:08:58.930Z,4.03
2022-08-11T00:11:37.919Z,4.10
2022-08-11T00:14:22.523Z,3.80
2022-08-11T00:17:01.413Z,4.22
2022-08-11T00:20:14.038Z,4.45
2022-08-11T00:22:23.565Z,3.70
2022-08-11T00:24:53.650Z,3.90
2022-08-11T00:27:34.529Z,4.30
2022-08-11T00:30:01.817Z,4.45
2022-08-11T00:32:30.088Z,4.40
2022-08-11T00:35:54.979Z,4.17
2022-08-11T00:37:50.009Z,4.38
2022-08-11T00:40:36.679Z,4.55
2022-08-11T00:43:20.439Z,4.28
2022-08-11T00:46:14.108Z,4.10
2022-08-11T00:48:59.394Z,4.20
2022-08-11T00:52:04.217Z,4.25
2022-08-11T00:55:02.912Z,4.50
2022-08-11T00:57:38.818Z,4.20
2022-08-11T01:00:23.329Z,4.03
2022-08-11T01:03:18.289Z,4.50
2022-08-11T01:06:17.441Z,4.35
2022-08-11T01:09:02.755Z,4.22
2022-08-11T01:11:59.471Z,4.40
2022-08-11T01:15:03.431Z,4.53
2022-08-11T01:17:30.187Z,4.23
2022-08-11T01:20:44.666Z,4.38
2022-08-11T01:23:09.323Z,4.50
2022-08-11T01:25:57.183Z,4.85
2022-08-11T01:29:02.252Z,4.60
2022-08-11T01:31:31.541Z,4.87
2022-08-11T01:34:13.275Z,4.80
2022-08-11T01:37:10.603Z,4.90
2022-08-11T01:39:55.821Z,5.20
2022-08-11T01:43:02.774Z,4.78
2022-08-11T01:46:01.669Z,5.17
2022-08-11T01:48:53.220Z,5.28
2022-08-11T01:51:22.814Z,5.40
2022-08-11T01:54:18.950Z,5.55
2022-08-11T01:57:19.802Z,5.18
2022-08-11T02:00:16.142Z,5.60
2022-08-11T02:02:58.887Z,5.40
2022-08-11T02:05:25.611Z,5.95
2022-08-11T02:08:05.987Z,5.32
2022-08-11T02:11:09.884Z,5.13
2022-08-11T02:14:00.939Z,4.63
2022-08-11T02:17:06.144Z,5.40
2022-08-11T02:20:00.237Z,4.85
2022-08-11T02:22:54.637Z,5.70
2022-08-11T02:25:49.003Z,5.97
2022-08-11T02:28:20.518Z,6.20
2022-08-11T02:32:14.793Z,7.05
2022-08-11T02:34:18.817Z,6.30
2022-08-11T02:36:58.712Z,6.53
2022-08-11T02:39:34.498Z,6.30
2022-08-11T02:42:35.887Z,7.37
2022-08-11T02:45:12.506Z,6.70
2022-08-11T02:48:16.757Z,5.82
2022-08-11T02:51:03.459Z,6.22
2022-08-11T02:53:56.432Z,5.78
2022-08-11T02:56:52.133Z,5.87
2022-08-11T02:59:51.951Z,5.75
2022-08-11T03:02:45.989Z,5.60
2022-08-11T03:05:17.640Z,4.90
2022-08-11T03:08:11.411Z,4.40
2022-08-11T03:11:41.703Z,4.70
2022-08-11T03:14:45.775Z,4.68
2022-08-11T03:17:34.108Z,4.60
2022-08-11T03:20:33.144Z,4.20
2022-08-11T03:23:45.331Z,4.28
2022-08-11T03:26:28.118Z,4.13
2022-08-11T03:29:01.246Z,4.40
2022-08-11T03:31:36.806Z,4.45
2022-08-11T03:34:09.206Z,4.47
2022-08-11T03:42:02.591Z,3.67
2022-08-11T03:44:43.547Z,3.95
2022-08-11T03:47:34.463Z,4.38
2022-08-11T03:50:24.833Z,4.45
2022-08-11T03:53:16.482Z,4.35
2022-08-11T03:56:01.806Z,4.70
2022-08-11T03:58:39.610Z,4.40
2022-08-11T04:01:46.857Z,4.55
2022-08-11T04:05:07.326Z,3.92
2022-08-11T04:07:46.079Z,4.20
2022-08-11T04:10:37.989Z,4.40
2022-08-11T04:13:29.063Z,4.30
2022-08-11T04:16:28.463Z,4.18
2022-08-11T04:19:32.334Z,4.20
2022-08-11T04:22:24.096Z,4.50
2022-08-11T04:25:11.967Z,4.30
2022-08-11T04:28:28.824Z,4.45
2022-08-11T04:31:51.739Z,4.25
2022-08-11T04:34:32.173Z,3.80
2022-08-11T04:37:31.222Z,4.00
2022-08-11T04:40:25.891Z,4.47
2022-08-11T04:43:19.951Z,4.40
2022-08-11T04:46:10.767Z,4.65
2022-08-11T04:49:36.857Z,4.47
2022-08-11T04:52:49.698Z,4.28
2022-08-11T04:55:38.087Z,3.80
2022-08-11T04:58:36.763Z,4.32
2022-08-11T05:01:36.584Z,4.75
2022-08-11T05:04:28.731Z,4.63
2022-08-11T05:07:07.707Z,3.90
2022-08-11T05:09:49.358Z,3.97
2022-08-11T05:12:41.071Z,3.97
2022-08-11T05:15:32.498Z,3.80
2022-08-11T05:18:43.187Z,3.85
2022-08-11T05:21:33.887Z,3.88
2022-08-11T05:24:40.852Z,3.77
2022-08-11T05:27:32.686Z,4.45
2022-08-11T05:30:23.070Z,3.97
2022-08-11T05:33:40.085Z,3.88
2022-08-11T05:36:18.007Z,3.40
2022-08-11T05:39:14.863Z,3.87
2022-08-11T05:42:00.830Z,4.10
2022-08-11T05:44:48.766Z,3.88
2022-08-11T05:47:44.138Z,3.80
2022-08-11T05:50:35.212Z,4.00
2022-08-11T05:53:27.205Z,4.10
2022-08-11T05:56:15.301Z,4.00
2022-08-11T05:58:46.935Z,3.97
2022-08-11T06:01:21.787Z,3.58
2022-08-11T06:04:10.547Z,4.00
2022-08-11T06:06:45.185Z,5.43
2022-08-11T06:09:14.532Z,5.03
2022-08-11T06:11:44.935Z,5.50
2022-08-11T06:14:13.398Z,4.00
2022-08-11T06:16:42.808Z,4.32
2022-08-11T06:19:10.462Z,4.17
2022-08-11T06:21:38.187Z,4.22
2022-08-11T06:24:12.222Z,4.30
2022-08-11T06:27:01.591Z,4.03
2022-08-11T06:29:37.671Z,3.95
2022-08-11T06:32:15.644Z,3.90
2022-08-11T06:34:59.334Z,4.40
2022-08-11T06:37:45.380Z,3.90
2022-08-11T06:41:15.815Z,4.22
2022-08-11T06:43:55.978Z,3.92
2022-08-11T06:46:32.441Z,3.50
2022-08-11T06:49:03.248Z,3.65
2022-08-11T06:51:32.584Z,3.55
2022-08-11T06:54:04.574Z,3.20
2022-08-11T07:00:03.796Z,3.37
2022-08-11T07:02:34.528Z,3.38
2022-08-11T07:05:11.516Z,3.53
2022-08-11T07:08:35.359Z,2.80
2022-08-11T07:11:59.441Z,3.63
2022-08-11T07:14:48.716Z,3.60
2022-08-11T07:17:21.930Z,3.58
2022-08-11T07:20:13.747Z,3.30
2022-08-11T07:23:01.934Z,4.00
2022-08-11T07:25:49.275Z,3.45
2022-08-11T07:28:43.766Z,3.83
2022-08-11T07:31:37.340Z,3.85
2022-08-11T07:34:35.355Z,3.40
2022-08-11T07:37:09.398Z,3.63
2022-08-11T07:39:37.999Z,3.58
2022-08-11T07:42:09.972Z,4.00
2022-08-11T07:44:56.146Z,3.95
2022-08-11T07:47:42.056Z,3.67
2022-08-11T07:50:28.097Z,3.35
2022-08-11T07:52:56.203Z,3.97
2022-08-11T07:55:49.002Z,4.30
2022-08-11T07:58:39.532Z,3.13
2022-08-11T08:01:38.334Z,3.75
2022-08-11T08:04:25.079Z,3.55
2022-08-11T08:07:11.300Z,3.22
2022-08-11T08:09:57.472Z,3.47
2022-08-11T08:12:44.703Z,3.22
2022-08-11T08:15:32.592Z,3.55
2022-08-11T08:18:20.399Z,3.65
2022-08-11T08:20:50.299Z,3.75
2022-08-11T08:23:33.308Z,3.10
2022-08-11T08:26:04.506Z,3.15
2022-08-11T08:28:33.667Z,3.08
2022-08-11T08:31:00.803Z,3.05
2022-08-11T08:33:31.905Z,3.05
2022-08-11T08:36:17.137Z,3.37
2022-08-11T08:38:54.101Z,3.10
2022-08-11T08:41:28.253Z,3.03
2022-08-11T08:44:15.156Z,3.40
2022-08-11T08:46:52.275Z,3.00
2022-08-11T08:49:23.738Z,3.20
2022-08-11T08:52:19.970Z,3.40
2022-08-11T08:54:44.455Z,3.25
2022-08-11T08:57:13.318Z,3.17
2022-08-11T08:59:49.298Z,2.88
2022-08-11T09:02:34.584Z,2.90
2022-08-11T09:05:07.775Z,2.88
2022-08-11T09:07:38.867Z,2.63
2022-08-11T09:10:08.500Z,2.80
2022-08-11T09:12:39.214Z,3.03
2022-08-11T09:15:10.311Z,2.30
2022-08-11T09:17:41.956Z,2.90
2022-08-11T09:20:15.427Z,2.45
2022-08-11T09:23:41.711Z,2.70
2022-08-11T09:26:14.979Z,2.50
2022-08-11T09:28:47.208Z,2.73
2022-08-11T09:31:14.912Z,2.20
2022-08-11T09:33:43.237Z,2.05
2022-08-11T09:36:31.075Z,2.38
2022-08-11T09:39:18.913Z,2.28
2022-08-11T09:42:00.834Z,2.00
2022-08-11T09:44:50.132Z,2.30
2022-08-11T09:47:29.693Z,2.40
2022-08-11T09:50:02.140Z,2.08
2022-08-11T09:52:32.263Z,2.28
2022-08-11T09:55:00.876Z,2.53
2022-08-11T09:57:46.150Z,2.50
2022-08-11T10:00:15.468Z,2.63
2022-08-11T10:02:53.631Z,2.08
2022-08-11T10:05:40.316Z,2.13
2022-08-11T10:08:11.979Z,2.03
2022-08-11T10:10:41.118Z,2.30
2022-08-11T10:14:04.877Z,2.60
2022-08-11T10:16:15.675Z,2.40
2022-08-11T10:18:52.201Z,2.20
2022-08-11T10:22:05.164Z,2.23
2022-08-11T10:24:51.564Z,2.38
2022-08-11T10:27:18.720Z,2.05
2022-08-11T10:30:04.486Z,2.10
2022-08-11T10:32:58.681Z,2.00
2022-08-11T10:35:31.489Z,2.13
2022-08-11T10:38:08.747Z,2.17
2022-08-11T10:40:41.712Z,2.20
2022-08-11T10:44:01.185Z,2.25
2022-08-11T10:46:29.574Z,1.67
2022-08-11T10:48:58.331Z,2.50
2022-08-11T10:51:51.096Z,2.28
2022-08-11T10:54:41.061Z,2.20
2022-08-11T10:57:27.854Z,2.05
2022-08-11T10:59:56.665Z,2.15
2022-08-11T11:02:24.167Z,2.60
2022-08-11T11:05:09.474Z,2.22
2022-08-11T11:07:45.174Z,2.35
2022-08-11T11:10:12.577Z,2.22
2022-08-11T11:13:04.719Z,2.05
2022-08-11T11:15:54.451Z,2.50
2022-08-11T11:18:27.087Z,2.60
2022-08-11T11:20:58.725Z,2.92
2022-08-11T11:23:33.376Z,2.28
2022-08-11T11:26:16.776Z,2.00
2022-08-11T11:29:31.607Z,2.27
2022-08-11T11:32:18.334Z,2.30
2022-08-11T11:35:16.297Z,2.08
2022-08-11T11:38:03.765Z,2.10
2022-08-11T11:40:33.200Z,1.92
2022-08-11T11:43:00.852Z,2.30
2022-08-11T11:45:28.453Z,2.50
2022-08-11T11:47:59.067Z,2.35
2022-08-11T11:50:31.472Z,1.98
2022-08-11T11:53:03.664Z,2.33
2022-08-11T11:55:31.103Z,2.10
2022-08-11T11:58:19.090Z,2.60
2022-08-11T12:01:06.254Z,2.40
2022-08-11T12:03:35.429Z,2.10
2022-08-11T12:06:04.223Z,2.03
2022-08-11T12:08:32.027Z,2.60
2022-08-11T12:11:20.602Z,2.30
2022-08-11T12:13:50.965Z,1.80
2022-08-11T12:16:34.114Z,2.10
2022-08-11T12:19:13.139Z,2.08
2022-08-11T12:22:03.929Z,2.40
2022-08-11T12:25:01.206Z,2.38
2022-08-11T12:27:30.826Z,2.30
2022-08-11T12:30:00.893Z,1.83
2022-08-11T12:32:31.410Z,2.08
2022-08-11T12:34:58.898Z,2.20
2022-08-11T12:37:30.955Z,1.90
2022-08-11T12:40:43.494Z,2.75
2022-08-11T12:43:38.626Z,2.20
2022-08-11T12:46:29.575Z,2.47
2022-08-11T12:49:20.481Z,2.83
2022-08-11T12:52:10.954Z,2.15
2022-08-11T12:55:00.304Z,2.55
2022-08-11T12:57:58.288Z,1.85
2022-08-11T13:00:48.561Z,2.42
2022-08-11T13:03:37.378Z,2.30
2022-08-11T13:06:05.622Z,2.05
2022-08-11T13:08:36.744Z,1.92
2022-08-11T13:11:23.555Z,2.22
2022-08-11T13:13:57.191Z,2.38
2022-08-11T13:16:57.668Z,2.27
2022-08-11T13:19:25.298Z,2.05
2022-08-11T13:21:53.185Z,2.28
2022-08-11T13:24:22.098Z,2.40
2022-08-11T13:26:50.539Z,2.22
2022-08-11T13:29:23.390Z,2.00
2022-08-11T13:31:52.536Z,2.38
2022-08-11T13:34:21.334Z,2.08
2022-08-11T13:36:52.229Z,2.20
2022-08-11T13:39:22.846Z,2.13
2022-08-11T13:41:51.886Z,1.90
2022-08-11T13:44:25.336Z,1.90
2022-08-11T13:46:57.654Z,2.20
2022-08-11T13:49:25.898Z,2.28
2022-08-11T13:51:53.099Z,2.13
2022-08-11T13:54:23.934Z,2.00
2022-08-11T13:56:54.755Z,1.90
2022-08-11T13:59:28.182Z,2.10
2022-08-11T14:02:21.965Z,1.98
2022-08-11T14:04:56.892Z,1.80
2022-08-11T14:07:27.530Z,2.30
2022-08-11T14:09:59.334Z,1.70
2022-08-11T14:12:56.137Z,2.13
2022-08-11T14:15:31.420Z,2.20
2022-08-11T14:18:05.145Z,2.25
2022-08-11T14:20:52.968Z,1.73
2022-08-11T14:23:43.739Z,2.20
2022-08-11T14:26:23.738Z,1.88
2022-08-11T14:28:55.117Z,2.08
2022-08-11T14:31:26.924Z,2.05
2022-08-11T14:34:02.016Z,2.10
2022-08-11T14:36:32.777Z,2.03
2022-08-11T14:39:03.511Z,1.70
2022-08-11T14:42:11.464Z,1.52
2022-08-11T14:44:57.973Z,2.10
2022-08-11T14:47:27.154Z,2.00
2022-08-11T14:50:10.291Z,1.92
2022-08-11T14:52:43.384Z,1.60
2022-08-11T14:55:29.686Z,1.67
2022-08-11T14:57:57.295Z,1.70
2022-08-11T15:00:25.509Z,1.90
2022-08-11T15:03:13.463Z,2.35
2022-08-11T15:05:57.957Z,2.05
2022-08-11T15:08:46.583Z,1.98
2022-08-11T15:11:33.632Z,2.00
2022-08-11T15:14:02.685Z,1.70
2022-08-11T15:16:48.230Z,1.77
2022-08-11T15:19:16.822Z,1.83
2022-08-11T15:22:02.500Z,1.55
2022-08-11T15:24:32.737Z,1.70
2022-08-11T15:27:21.944Z,2.30
2022-08-11T15:30:09.913Z,1.83
2022-08-11T15:33:04.903Z,1.80
2022-08-11T15:35:53.769Z,1.75
2022-08-11T15:38:23.059Z,1.85
2022-08-11T15:41:13.169Z,2.20
2022-08-11T15:44:07.563Z,1.90
2022-08-11T15:46:57.862Z,1.98
2022-08-11T15:50:10.796Z,2.03
2022-08-11T15:52:31.818Z,1.92
2022-08-11T15:55:02.324Z,1.77
2022-08-11T15:57:49.243Z,1.80
2022-08-11T16:00:35.555Z,2.00
2022-08-11T16:03:23.343Z,1.83
2022-08-11T16:05:53.188Z,2.13
2022-08-11T16:08:32.659Z,1.73
2022-08-11T16:11:03.976Z,1.90
2022-08-11T16:13:37.776Z,1.90
2022-08-11T16:16:14.562Z,1.90
2022-08-11T16:18:52.088Z,1.95
2022-08-11T16:21:26.032Z,1.87
2022-08-11T16:24:07.168Z,2.10
2022-08-11T16:27:07.692Z,1.67
2022-08-11T16:29:25.798Z,1.55
2022-08-11T16:32:14.402Z,1.98
2022-08-11T16:35:02.634Z,1.93
2022-08-11T16:37:52.290Z,1.98
2022-08-11T16:40:22.644Z,2.03
2022-08-11T16:43:11.523Z,1.75
2022-08-11T16:45:59.633Z,1.80
2022-08-11T16:48:33.449Z,1.70
2022-08-11T16:51:04.729Z,1.92
2022-08-11T16:53:59.929Z,1.73
2022-08-11T16:56:24.214Z,2.00
2022-08-11T16:59:13.438Z,1.80
2022-08-11T17:02:05.055Z,1.83
2022-08-11T17:05:09.191Z,1.77
2022-08-11T17:07:57.938Z,2.10
2022-08-11T17:10:56.695Z,2.22
2022-08-11T17:13:37.155Z,1.75
2022-08-11T17:16:08.287Z,1.77
2022-08-11T17:18:56.330Z,1.90
2022-08-11T17:21:27.769Z,1.92
2022-08-11T17:23:59.499Z,1.48
2022-08-11T17:26:53.892Z,1.80
2022-08-11T17:29:25.785Z,1.80
2022-08-11T17:32:13.062Z,1.92
2022-08-11T17:35:00.787Z,1.92
2022-08-11T17:37:30.604Z,1.83
2022-08-11T17:39:59.482Z,1.90
2022-08-11T17:42:48.047Z,2.10
2022-08-11T17:45:36.978Z,2.05
2022-08-11T17:48:24.255Z,2.10
2022-08-11T17:51:39.630Z,1.70
2022-08-11T17:54:25.822Z,2.25
2022-08-11T17:57:21.314Z,1.80
2022-08-11T17:59:53.879Z,1.83
2022-08-11T18:02:56.934Z,2.08
2022-08-11T18:05:30.344Z,1.90
2022-08-11T18:08:18.432Z,1.80
2022-08-11T18:11:05.185Z,2.00
2022-08-11T18:13:54.643Z,1.90
2022-08-11T18:16:40.207Z,1.90
2022-08-11T18:19:26.591Z,1.90
2022-08-11T18:22:16.236Z,2.22
2022-08-11T18:25:14.043Z,1.80
2022-08-11T18:28:05.103Z,2.20
2022-08-11T18:31:03.875Z,2.50
2022-08-11T18:34:08.250Z,1.80
2022-08-11T18:37:00.700Z,2.00
2022-08-11T18:39:56.327Z,1.90
2022-08-11T18:42:43.335Z,2.03
2022-08-11T18:45:41.080Z,2.17
2022-08-11T18:48:35.846Z,2.05
2022-08-11T18:51:31.302Z,1.95
2022-08-11T18:54:27.604Z,2.20
2022-08-11T18:57:16.450Z,1.58
2022-08-11T19:00:04.367Z,2.00
2022-08-11T19:02:51.387Z,2.00
2022-08-11T19:06:35.842Z,1.92
2022-08-11T19:08:55.134Z,1.50
2022-08-11T19:11:43.729Z,2.13
2022-08-11T19:14:34.352Z,2.05
2022-08-11T19:17:45.157Z,1.95
2022-08-11T19:20:39.123Z,1.77
2022-08-11T19:23:27.464Z,1.83
2022-08-11T19:26:16.278Z,1.85
2022-08-11T19:29:04.514Z,1.65
2022-08-11T19:31:51.510Z,1.70
2022-08-11T19:34:39.478Z,1.75
2022-08-11T19:37:26.377Z,1.80
2022-08-11T19:40:13.547Z,1.75
2022-08-11T19:43:02.129Z,1.83
2022-08-11T19:45:52.407Z,1.73
2022-08-11T19:48:42.276Z,1.60
2022-08-11T19:51:30.951Z,1.83
2022-08-11T19:54:17.827Z,1.77
2022-08-11T19:57:05.960Z,1.80
2022-08-11T19:59:53.204Z,1.80
2022-08-11T20:02:38.634Z,2.15
2022-08-11T20:05:25.294Z,1.83
2022-08-11T20:08:14.120Z,1.92
2022-08-11T20:11:00.811Z,1.98
2022-08-11T20:13:48.195Z,1.48
2022-08-11T20:16:39.539Z,1.65
2022-08-11T20:19:54.700Z,1.73
2022-08-11T20:22:36.122Z,2.10
2022-08-11T20:25:24.364Z,2.00
2022-08-11T20:28:10.507Z,1.50
2022-08-11T20:30:56.740Z,1.52
2022-08-11T20:33:42.932Z,2.03
2022-08-11T20:36:29.338Z,1.83
2022-08-11T20:39:17.361Z,1.75
2022-08-11T20:42:05.556Z,1.80
2022-08-11T20:44:53.779Z,1.92
2022-08-11T20:47:56.467Z,1.83
2022-08-11T20:50:48.023Z,2.00
2022-08-11T20:53:40.496Z,1.45
2022-08-11T20:56:30.194Z,1.80
2022-08-11T20:59:18.769Z,2.20
2022-08-11T21:02:09.726Z,2.00
2022-08-11T21:05:00.444Z,1.77
2022-08-11T21:10:59.286Z,2.45
2022-08-11T21:13:51.272Z,1.80
2022-08-11T21:16:47.522Z,1.97
2022-08-11T21:19:59.718Z,1.70
2022-08-11T21:23:18.479Z,2.33
2022-08-11T21:26:14.659Z,4.68
2022-08-11T21:29:01.607Z,2.53
2022-08-11T21:31:50.612Z,2.10
2022-08-11T21:34:39.875Z,2.28
2022-08-11T21:37:27.614Z,2.20
2022-08-11T21:40:17.524Z,2.40
2022-08-11T21:43:05.310Z,1.90
2022-08-11T21:45:54.214Z,1.97
2022-08-11T21:48:41.491Z,1.85
2022-08-11T21:51:26.678Z,2.28
2022-08-11T21:54:12.510Z,2.05
2022-08-11T21:56:58.751Z,2.10
2022-08-11T22:00:00.778Z,2.00
2022-08-11T22:02:48.984Z,1.80
2022-08-11T22:05:39.918Z,2.00
2022-08-11T22:08:26.737Z,2.03
2022-08-11T22:11:12.974Z,2.15
2022-08-11T22:14:06.060Z,2.23
2022-08-11T22:16:54.800Z,2.30
2022-08-11T22:19:42.038Z,1.77
2022-08-11T22:22:29.962Z,1.95
2022-08-11T22:25:18.459Z,1.95
2022-08-11T22:28:03.963Z,2.20
2022-08-11T22:30:49.214Z,1.85
2022-08-11T22:33:35.566Z,2.17
2022-08-11T22:36:23.412Z,2.15
2022-08-11T22:39:10.255Z,2.30
2022-08-11T22:41:55.587Z,2.00
2022-08-11T22:44:41.035Z,2.42
2022-08-11T22:47:38.418Z,2.13
2022-08-11T22:50:27.044Z,2.13
2022-08-11T22:53:13.656Z,2.00
2022-08-11T22:55:59.839Z,2.37
2022-08-11T22:58:46.015Z,2.00
2022-08-11T23:01:35.842Z,2.17
2022-08-11T23:04:21.619Z,1.88
2022-08-11T23:07:08.294Z,2.17
2022-08-11T23:09:54.443Z,1.97
2022-08-11T23:12:41.171Z,2.22
2022-08-11T23:15:32.686Z,2.60
2022-08-11T23:18:20.995Z,2.35
2022-08-11T23:21:06.876Z,2.15
2022-08-11T23:23:53.802Z,2.80
2022-08-11T23:26:41.204Z,2.20
2022-08-11T23:29:26.953Z,2.25
2022-08-11T23:32:12.702Z,2.40
2022-08-11T23:35:36.931Z,2.08
2022-08-11T23:38:05.143Z,2.63
2022-08-11T23:40:50.364Z,2.22
2022-08-11T23:43:42.849Z,2.22
2022-08-11T23:46:28.784Z,2.33
2022-08-11T23:49:23.645Z,2.30
2022-08-11T23:52:10.909Z,2.23
2022-08-11T23:54:56.622Z,2.33
2022-08-11T23:57:48.836Z,2.28
